Time;durP1;ratioP1;P1;durP2;ratioP2;P2;SDS_P1;SDS_P2;PMS_P1;PMS_P2;Temp;Humidity;BMP_temperature;BMP_pressure;BME280_temperature;BME280_humidity;BME280_pressure;Samples;Min_cycle;Max_cycle;Signal;HPM_P1;HPM_P2
2022/06/01 00:01:27;;;;;;;9.88;8.13;;;14.50;99.90;;;;;;4169174;28;20040;-65
2022/06/01 00:03:33;;;;;;;9.63;6.95;;;14.40;99.90;;;;;;4168962;28;20042;-65
2022/06/01 00:05:34;;;;;;;10.80;7.78;;;14.50;99.90;;;;;;4170500;28;20041;-66
2022/06/01 00:07:35;;;;;;;10.13;7.97;;;14.50;99.90;;;;;;4172378;28;20049;-65
2022/06/01 00:09:36;;;;;;;10.07;8.50;;;14.50;99.90;;;;;;4173175;28;20039;-65
2022/06/01 00:11:37;;;;;;;10.95;8.45;;;14.50;99.90;;;;;;4170445;28;20046;-65
2022/06/01 00:13:38;;;;;;;10.30;7.70;;;14.50;99.90;;;;;;4169967;28;20462;-65
2022/06/01 00:15:38;;;;;;;9.60;7.72;;;14.50;99.90;;;;;;4168429;28;20037;-65
2022/06/01 00:17:39;;;;;;;9.02;7.40;;;14.50;99.90;;;;;;4168555;28;20037;-65
2022/06/01 00:19:39;;;;;;;11.65;7.78;;;14.50;99.90;;;;;;4172049;28;20522;-65
2022/06/01 00:23:59;;;;;;;12.75;8.57;;;14.60;99.90;;;;;;4170621;28;20467;-65
2022/06/01 00:26:00;;;;;;;9.02;7.90;;;14.60;99.90;;;;;;4168154;28;20034;-65
2022/06/01 00:28:00;;;;;;;9.40;7.90;;;14.60;99.90;;;;;;4168492;28;20113;-65
2022/06/01 00:30:03;;;;;;;10.82;7.82;;;14.60;99.90;;;;;;4176388;28;20195;-65
2022/06/01 00:32:05;;;;;;;9.98;7.75;;;14.70;99.90;;;;;;4164317;28;20196;-65
2022/06/01 00:34:06;;;;;;;10.15;8.23;;;14.60;99.90;;;;;;4174674;28;20065;-65
2022/06/01 00:36:07;;;;;;;9.18;7.78;;;14.60;99.90;;;;;;4178889;28;20057;-65
2022/06/01 00:38:09;;;;;;;11.20;7.85;;;14.70;99.90;;;;;;4162162;28;20492;-65
2022/06/01 00:40:11;;;;;;;10.05;7.80;;;14.70;99.90;;;;;;4179147;28;20036;-67
2022/06/01 00:42:13;;;;;;;9.88;8.15;;;14.70;99.90;;;;;;4173822;28;20064;-65
2022/06/01 00:44:14;;;;;;;9.40;7.90;;;14.70;99.90;;;;;;4168221;28;20045;-65
2022/06/01 00:46:14;;;;;;;7.80;7.00;;;14.70;99.90;;;;;;4178856;28;20306;-65
2022/06/01 00:48:15;;;;;;;9.95;7.88;;;14.70;99.90;;;;;;4173150;28;20309;-69
2022/06/01 00:50:36;;;;;;;11.05;8.20;;;14.70;99.90;;;;;;4167181;28;20037;-66
2022/06/01 00:52:45;;;;;;;10.80;8.65;;;14.70;99.90;;;;;;4152595;28;20491;-65
2022/06/01 00:54:46;;;;;;;9.02;7.63;;;14.70;99.90;;;;;;4174624;28;20041;-66
2022/06/01 00:56:53;;;;;;;8.73;7.35;;;14.70;99.90;;;;;;4165528;28;20065;-65
2022/06/01 00:58:56;;;;;;;10.73;7.95;;;14.70;99.90;;;;;;4173840;28;20033;-65
2022/06/01 01:00:58;;;;;;;10.05;7.88;;;14.70;99.90;;;;;;4172114;28;20033;-65
2022/06/01 01:03:03;;;;;;;8.80;7.33;;;14.70;99.90;;;;;;4173125;28;20033;-65
2022/06/01 01:05:06;;;;;;;9.50;7.72;;;14.70;99.90;;;;;;4173041;28;20068;-67
2022/06/01 01:07:12;;;;;;;9.00;7.68;;;14.70;99.90;;;;;;4167656;28;20099;-65
2022/06/01 01:09:13;;;;;;;9.93;8.40;;;14.70;99.90;;;;;;4167145;28;20498;-65
2022/06/01 01:11:16;;;;;;;10.02;8.38;;;14.70;99.90;;;;;;4165891;28;20121;-65
2022/06/01 01:13:16;;;;;;;8.60;7.15;;;14.70;99.90;;;;;;4166812;28;20092;-66
2022/06/01 01:15:19;;;;;;;10.82;7.60;;;14.70;99.90;;;;;;4168330;28;20037;-66
2022/06/01 01:17:21;;;;;;;10.65;7.85;;;14.70;99.90;;;;;;4174107;28;20048;-66
2022/06/01 01:19:42;;;;;;;8.10;6.97;;;14.70;99.90;;;;;;4179086;28;20051;-66
2022/06/01 01:22:07;;;;;;;9.95;7.43;;;14.70;99.90;;;;;;4178005;28;20111;-66
2022/06/01 01:24:14;;;;;;;9.07;7.68;;;14.50;99.90;;;;;;4175011;28;20037;-65
2022/06/01 01:26:15;;;;;;;10.43;8.43;;;14.50;99.90;;;;;;4170218;28;20622;-65
2022/06/01 01:28:15;;;;;;;9.63;7.82;;;14.50;99.90;;;;;;4168562;28;20032;-65
2022/06/01 01:30:41;;;;;;;10.25;7.78;;;14.40;99.90;;;;;;4174397;28;20059;-66
2022/06/01 01:32:42;;;;;;;9.30;7.68;;;14.40;99.90;;;;;;4168884;28;20368;-65
2022/06/01 01:34:44;;;;;;;10.15;8.13;;;14.50;99.90;;;;;;4174503;28;20055;-65
2022/06/01 01:36:51;;;;;;;12.23;7.95;;;14.40;99.90;;;;;;4178162;28;20059;-65
2022/06/01 01:39:27;;;;;;;8.43;7.22;;;14.40;99.90;;;;;;4178095;28;20037;-65
2022/06/01 01:41:35;;;;;;;10.45;8.15;;;14.40;99.90;;;;;;4156063;28;20090;-65
2022/06/01 01:43:50;;;;;;;9.75;7.90;;;14.40;99.90;;;;;;4173851;28;20120;-65
2022/06/01 01:45:50;;;;;;;10.93;8.50;;;14.40;99.90;;;;;;4164130;28;20084;-65
2022/06/01 01:47:52;;;;;;;10.18;8.68;;;14.30;99.90;;;;;;4172221;28;20041;-66
2022/06/01 01:49:53;;;;;;;11.05;8.57;;;14.30;99.90;;;;;;4169057;28;20468;-66
2022/06/01 01:51:58;;;;;;;10.30;8.13;;;14.30;99.90;;;;;;4171091;28;20056;-66
2022/06/01 01:54:02;;;;;;;10.68;8.63;;;14.20;99.90;;;;;;4173511;28;20379;-65
2022/06/01 01:56:16;;;;;;;14.43;9.48;;;14.20;99.90;;;;;;4171371;28;20045;-65
2022/06/01 01:58:32;;;;;;;13.43;8.88;;;14.10;99.90;;;;;;4163075;28;20037;-66
2022/06/01 02:00:36;;;;;;;9.63;8.48;;;14.10;99.90;;;;;;4165977;28;20120;-65
2022/06/01 02:03:02;;;;;;;10.55;8.15;;;14.10;99.90;;;;;;4168509;28;20431;-65
2022/06/01 02:07:45;;;;;;;11.00;8.35;;;14.00;99.90;;;;;;4172501;28;20474;-65
2022/06/01 02:14:31;;;;;;;9.68;7.70;;;14.00;99.90;;;;;;4171479;28;20059;-65
2022/06/01 02:16:36;;;;;;;10.52;8.73;;;13.90;99.90;;;;;;4177551;28;20044;-65
2022/06/01 02:18:42;;;;;;;10.73;7.85;;;13.90;99.90;;;;;;4170870;28;20046;-65
2022/06/01 02:20:47;;;;;;;10.32;8.68;;;13.90;99.90;;;;;;4169740;28;20032;-65
2022/06/01 02:22:48;;;;;;;9.95;8.32;;;13.90;99.90;;;;;;4173120;28;20037;-67
2022/06/01 02:24:49;;;;;;;11.40;8.38;;;13.80;99.90;;;;;;4173842;28;20460;-66
2022/06/01 02:26:52;;;;;;;9.32;7.85;;;13.90;99.90;;;;;;4170659;28;20499;-66
2022/06/01 02:28:58;;;;;;;10.65;8.27;;;13.90;99.90;;;;;;4168092;28;20052;-65
2022/06/01 02:31:00;;;;;;;10.15;8.32;;;13.80;99.90;;;;;;4169912;28;20044;-65
2022/06/01 02:33:03;;;;;;;9.88;8.32;;;13.80;99.90;;;;;;4170613;28;20048;-65
2022/06/01 02:35:05;;;;;;;9.68;8.07;;;13.80;99.90;;;;;;4171105;28;20124;-65
2022/06/01 02:37:09;;;;;;;11.48;8.93;;;13.80;99.90;;;;;;4170019;28;21569;-65
2022/06/01 02:39:14;;;;;;;10.45;8.23;;;13.80;99.90;;;;;;4171208;28;20029;-65
2022/06/01 02:43:49;;;;;;;10.38;7.95;;;13.80;99.90;;;;;;4170677;28;20460;-65
2022/06/01 02:45:49;;;;;;;10.40;8.13;;;13.80;99.90;;;;;;4165235;28;20060;-65
2022/06/01 02:47:52;;;;;;;12.57;8.27;;;13.80;99.90;;;;;;4176564;28;20033;-65
2022/06/01 02:49:53;;;;;;;11.55;8.20;;;13.70;99.90;;;;;;4168923;28;20509;-65
2022/06/01 02:51:54;;;;;;;8.35;7.47;;;13.70;99.90;;;;;;4174173;28;20048;-65
2022/06/01 02:53:54;;;;;;;8.23;7.25;;;13.70;99.90;;;;;;4171988;28;20049;-65
2022/06/01 02:55:57;;;;;;;9.52;7.55;;;13.70;99.90;;;;;;4175684;28;20033;-65
2022/06/01 02:57:58;;;;;;;11.48;8.77;;;13.70;99.90;;;;;;4159948;28;20080;-65
2022/06/01 02:59:59;;;;;;;11.10;8.80;;;13.70;99.90;;;;;;4168535;28;20040;-65
2022/06/01 03:02:00;;;;;;;10.30;7.57;;;13.70;99.90;;;;;;4167090;28;20072;-65
2022/06/01 03:04:00;;;;;;;10.30;7.93;;;13.70;99.90;;;;;;4164330;28;20081;-66
2022/06/01 03:06:01;;;;;;;11.80;8.18;;;13.70;99.90;;;;;;4167829;28;20033;-65
2022/06/01 03:08:03;;;;;;;10.32;8.50;;;13.70;99.90;;;;;;4174527;28;20041;-65
2022/06/01 03:10:04;;;;;;;9.75;8.27;;;13.70;99.90;;;;;;4170959;28;20037;-66
2022/06/01 03:12:06;;;;;;;10.68;8.77;;;13.70;99.90;;;;;;4171929;28;20049;-65
2022/06/01 03:14:07;;;;;;;10.43;8.95;;;13.70;99.90;;;;;;4172729;28;20072;-65
2022/06/01 03:16:07;;;;;;;9.98;8.50;;;13.70;99.90;;;;;;4162587;28;20052;-65
2022/06/01 03:18:08;;;;;;;12.15;8.88;;;13.70;99.90;;;;;;4168219;28;20136;-65
2022/06/01 03:20:11;;;;;;;12.73;8.40;;;13.70;99.90;;;;;;4164947;28;20472;-65
2022/06/01 03:22:12;;;;;;;11.55;8.73;;;13.70;99.90;;;;;;4163264;28;20064;-65
2022/06/01 03:24:13;;;;;;;10.27;8.73;;;13.60;99.90;;;;;;4170700;28;20404;-65
2022/06/01 03:26:13;;;;;;;10.07;8.40;;;13.60;99.90;;;;;;4176417;28;20472;-65
2022/06/01 03:28:15;;;;;;;11.60;8.80;;;13.60;99.90;;;;;;4169279;28;20041;-65
2022/06/01 03:30:17;;;;;;;10.50;8.85;;;13.60;99.90;;;;;;4169442;28;20029;-66
2022/06/01 03:32:17;;;;;;;11.13;9.15;;;13.60;99.90;;;;;;4171138;28;20080;-65
2022/06/01 03:34:19;;;;;;;9.35;8.20;;;13.60;99.90;;;;;;4167022;28;20034;-66
2022/06/01 03:36:19;;;;;;;10.57;8.77;;;13.50;99.90;;;;;;4162153;28;20048;-66
2022/06/01 03:38:20;;;;;;;10.50;8.18;;;13.50;99.90;;;;;;4174354;28;20067;-66
2022/06/01 03:40:22;;;;;;;11.43;8.95;;;13.50;99.90;;;;;;4167323;28;20075;-66
2022/06/01 03:42:23;;;;;;;11.40;8.80;;;13.50;99.90;;;;;;4158144;28;20551;-66
2022/06/01 03:46:42;;;;;;;11.60;8.93;;;13.50;99.90;;;;;;4171425;28;20037;-66
2022/06/01 03:48:43;;;;;;;14.55;9.93;;;13.50;99.90;;;;;;4165999;28;20439;-66
2022/06/01 03:50:44;;;;;;;13.18;9.70;;;13.50;99.90;;;;;;4167094;28;20037;-66
2022/06/01 03:52:45;;;;;;;12.30;9.93;;;13.40;99.90;;;;;;4169726;28;20048;-65
2022/06/01 03:54:46;;;;;;;10.63;9.30;;;13.30;99.90;;;;;;4171033;28;20108;-65
2022/06/01 03:56:47;;;;;;;12.07;9.90;;;13.30;99.90;;;;;;4163627;28;20399;-65
2022/06/01 03:58:47;;;;;;;12.75;9.30;;;13.20;99.90;;;;;;4167556;28;20030;-65
2022/06/01 04:00:49;;;;;;;12.75;9.95;;;13.20;99.90;;;;;;4163466;28;20567;-67
2022/06/01 04:02:50;;;;;;;10.70;8.80;;;13.20;99.90;;;;;;4170864;28;20036;-65
2022/06/01 04:04:51;;;;;;;12.77;9.50;;;13.10;99.90;;;;;;4174931;28;20041;-65
2022/06/01 04:06:51;;;;;;;11.27;9.70;;;13.10;99.90;;;;;;4172655;28;20044;-65
2022/06/01 04:08:52;;;;;;;10.68;8.68;;;13.10;99.90;;;;;;4172559;28;20090;-65
2022/06/01 04:10:53;;;;;;;11.48;8.68;;;13.10;99.90;;;;;;4168476;28;20485;-66
2022/06/01 04:12:53;;;;;;;11.13;8.45;;;13.10;99.90;;;;;;4171144;28;20064;-65
2022/06/01 04:14:54;;;;;;;12.18;8.95;;;13.10;99.90;;;;;;4174315;28;20072;-65
2022/06/01 04:16:55;;;;;;;12.00;9.05;;;13.10;99.90;;;;;;4173718;28;20041;-65
2022/06/01 04:18:55;;;;;;;11.45;9.48;;;13.10;99.90;;;;;;4175285;28;20439;-66
2022/06/01 04:20:56;;;;;;;12.10;9.52;;;13.10;99.90;;;;;;4170624;28;20037;-65
2022/06/01 04:23:00;;;;;;;11.40;8.95;;;13.10;99.90;;;;;;4173526;28;20370;-66
2022/06/01 04:25:01;;;;;;;14.65;9.48;;;13.10;99.90;;;;;;4171362;28;20120;-66
2022/06/01 04:27:01;;;;;;;11.05;8.73;;;13.10;99.90;;;;;;4174357;28;20507;-65
2022/06/01 04:29:02;;;;;;;9.27;8.02;;;13.10;99.90;;;;;;4165641;28;20033;-65
2022/06/01 04:31:02;;;;;;;14.85;10.07;;;13.20;99.90;;;;;;4175202;28;20391;-65
2022/06/01 04:33:04;;;;;;;11.27;8.68;;;13.20;99.90;;;;;;4170179;28;20049;-65
2022/06/01 04:35:06;;;;;;;9.25;7.63;;;13.10;99.90;;;;;;4171283;28;20042;-66
2022/06/01 04:37:07;;;;;;;10.88;8.20;;;13.20;99.90;;;;;;4172084;28;20111;-65
2022/06/01 04:39:07;;;;;;;11.73;8.13;;;13.20;99.90;;;;;;4173858;28;20042;-65
2022/06/01 04:41:08;;;;;;;11.48;8.43;;;13.20;99.90;;;;;;4174722;28;20038;-65
2022/06/01 04:43:10;;;;;;;10.02;8.48;;;13.20;99.90;;;;;;4174410;28;20483;-65
2022/06/01 04:45:13;;;;;;;12.63;9.07;;;13.30;99.90;;;;;;4175603;28;20041;-66
2022/06/01 04:47:14;;;;;;;10.55;8.48;;;13.20;99.90;;;;;;4171127;28;20037;-65
2022/06/01 04:49:15;;;;;;;9.18;7.90;;;13.20;99.90;;;;;;4175029;28;20116;-65
2022/06/01 04:51:16;;;;;;;11.88;8.00;;;13.30;99.90;;;;;;4175070;28;20385;-65
2022/06/01 04:53:17;;;;;;;12.23;8.85;;;13.30;99.90;;;;;;4173123;28;20049;-66
2022/06/01 04:55:18;;;;;;;10.43;8.55;;;13.30;99.90;;;;;;4173515;28;20037;-68
2022/06/01 04:57:18;;;;;;;11.27;8.45;;;13.20;99.90;;;;;;4167975;28;20494;-68
2022/06/01 04:59:19;;;;;;;10.52;8.77;;;13.30;99.90;;;;;;4168413;28;20054;-69
2022/06/01 05:01:20;;;;;;;11.13;8.05;;;13.30;99.90;;;;;;4166800;28;20103;-68
2022/06/01 05:03:21;;;;;;;9.80;8.05;;;13.20;99.90;;;;;;4171162;28;20095;-69
2022/06/01 05:05:21;;;;;;;11.20;8.82;;;13.20;99.90;;;;;;4167587;28;20053;-68
2022/06/01 05:07:22;;;;;;;10.77;8.75;;;13.20;99.90;;;;;;4168984;28;20127;-68
2022/06/01 05:09:22;;;;;;;12.52;8.13;;;13.20;99.90;;;;;;4170640;28;20116;-69
2022/06/01 05:11:23;;;;;;;11.80;8.85;;;13.30;99.90;;;;;;4166280;28;20518;-69
2022/06/01 05:13:24;;;;;;;12.18;8.48;;;13.30;99.90;;;;;;4166993;28;20178;-69
2022/06/01 05:15:24;;;;;;;10.13;8.48;;;13.30;99.90;;;;;;4168770;28;20053;-68
2022/06/01 05:17:25;;;;;;;12.75;8.55;;;13.30;99.90;;;;;;4170301;28;20428;-69
2022/06/01 05:19:26;;;;;;;17.40;9.90;;;13.20;99.90;;;;;;4167139;28;20043;-68
2022/06/01 05:21:26;;;;;;;15.00;9.60;;;13.20;99.90;;;;;;4168090;28;20434;-68
2022/06/01 05:23:27;;;;;;;12.15;8.20;;;13.10;99.90;;;;;;4169802;28;20061;-68
2022/06/01 05:25:27;;;;;;;10.02;8.15;;;13.20;99.90;;;;;;4170464;28;20499;-68
2022/06/01 05:27:28;;;;;;;12.73;8.63;;;13.10;99.90;;;;;;4170608;28;20033;-68
2022/06/01 05:29:29;;;;;;;11.52;8.43;;;13.20;99.90;;;;;;4168264;28;20133;-68
2022/06/01 05:31:29;;;;;;;11.15;8.80;;;13.20;99.90;;;;;;4167098;28;20065;-68
2022/06/01 05:33:30;;;;;;;12.23;8.07;;;13.20;99.90;;;;;;4167366;28;20053;-68
2022/06/01 05:35:31;;;;;;;9.20;7.55;;;13.30;99.90;;;;;;4169622;28;20128;-68
2022/06/01 05:37:31;;;;;;;10.07;7.82;;;13.30;99.90;;;;;;4169699;28;20071;-68
2022/06/01 05:39:32;;;;;;;11.63;8.68;;;13.40;99.90;;;;;;4168867;28;20040;-68
2022/06/01 05:41:33;;;;;;;10.07;8.25;;;13.40;99.90;;;;;;4164552;28;20392;-68
2022/06/01 05:43:34;;;;;;;13.55;8.45;;;13.30;99.90;;;;;;4150526;28;20121;-68
2022/06/01 05:45:35;;;;;;;18.77;8.52;;;13.40;99.90;;;;;;4167179;28;20065;-68
2022/06/01 05:47:36;;;;;;;11.57;7.70;;;13.40;99.90;;;;;;4168865;28;20033;-68
2022/06/01 05:49:37;;;;;;;13.93;8.67;;;13.50;99.90;;;;;;4168591;28;20060;-68
2022/06/01 05:51:38;;;;;;;11.30;7.93;;;13.50;99.90;;;;;;4164941;28;20041;-68
2022/06/01 05:53:38;;;;;;;12.30;8.27;;;13.80;99.90;;;;;;4167656;28;20385;-68
2022/06/01 05:55:39;;;;;;;13.40;8.85;;;14.10;99.90;;;;;;4165189;28;20080;-68
2022/06/01 05:57:40;;;;;;;10.48;7.10;;;14.50;99.90;;;;;;4167816;28;20506;-68
2022/06/01 05:59:41;;;;;;;10.32;7.78;;;14.80;99.90;;;;;;4166774;28;20045;-68
2022/06/01 06:01:42;;;;;;;10.90;6.97;;;15.30;99.90;;;;;;4165882;28;20210;-68
2022/06/01 06:03:43;;;;;;;11.43;6.90;;;15.60;99.90;;;;;;4167948;28;20045;-68
2022/06/01 06:08:04;;;;;;;11.98;6.22;;;16.30;99.90;;;;;;4166211;28;20032;-69
2022/06/01 06:10:06;;;;;;;9.23;6.00;;;16.80;99.90;;;;;;4168003;28;20391;-69
2022/06/01 06:12:08;;;;;;;7.28;5.72;;;17.20;99.90;;;;;;4164139;28;20041;-69
2022/06/01 06:14:09;;;;;;;10.83;6.67;;;17.70;99.90;;;;;;4165893;28;20801;-69
2022/06/01 06:16:11;;;;;;;7.28;5.80;;;17.80;99.90;;;;;;4166265;28;20271;-69
2022/06/01 06:18:13;;;;;;;7.82;5.32;;;18.00;99.90;;;;;;4170089;28;20032;-69
2022/06/01 06:20:14;;;;;;;8.68;5.30;;;18.30;99.90;;;;;;4148873;28;20049;-69
2022/06/01 06:22:15;;;;;;;7.97;4.97;;;18.40;99.90;;;;;;4150621;28;20460;-69
2022/06/01 06:24:19;;;;;;;6.55;4.68;;;18.50;99.90;;;;;;4166347;28;20121;-69
2022/06/01 06:26:20;;;;;;;6.20;4.20;;;18.70;99.90;;;;;;4163900;28;20099;-70
2022/06/01 06:28:21;;;;;;;7.05;4.80;;;19.00;99.90;;;;;;4147220;28;20049;-70
2022/06/01 06:30:22;;;;;;;5.03;4.30;;;19.20;99.90;;;;;;4165075;28;20045;-69
2022/06/01 06:32:24;;;;;;;9.10;4.55;;;19.20;99.90;;;;;;4167651;28;20110;-70
2022/06/01 06:34:24;;;;;;;7.95;4.85;;;19.00;99.90;;;;;;4148381;28;20055;-69
2022/06/01 06:36:25;;;;;;;10.05;4.88;;;18.90;99.90;;;;;;4165504;28;20033;-69
2022/06/01 06:38:27;;;;;;;8.65;4.22;;;18.60;99.90;;;;;;4167432;28;20452;-69
2022/06/01 06:40:28;;;;;;;6.15;3.80;;;18.50;99.90;;;;;;4161974;28;20056;-70
2022/06/01 06:42:29;;;;;;;6.60;4.13;;;18.50;99.90;;;;;;4162018;28;20036;-70
2022/06/01 06:44:30;;;;;;;6.53;3.88;;;18.50;99.90;;;;;;4164371;28;20492;-69
2022/06/01 06:46:31;;;;;;;5.28;3.95;;;18.60;99.90;;;;;;4162511;28;20151;-70
2022/06/01 06:48:32;;;;;;;5.60;3.50;;;18.50;99.90;;;;;;4163708;28;20033;-69
2022/06/01 06:50:33;;;;;;;5.05;3.53;;;18.50;99.90;;;;;;4159819;28;20464;-69
2022/06/01 06:52:33;;;;;;;5.93;4.00;;;18.60;99.90;;;;;;4169644;28;20122;-70
2022/06/01 06:54:34;;;;;;;7.15;4.00;;;18.50;99.90;;;;;;4165320;28;20041;-70
2022/06/01 06:56:35;;;;;;;5.32;3.40;;;18.40;99.90;;;;;;4163759;28;20064;-69
2022/06/01 06:58:37;;;;;;;5.97;3.30;;;18.40;99.90;;;;;;4133332;28;20069;-69
2022/06/01 07:00:38;;;;;;;6.53;3.73;;;18.50;99.90;;;;;;4165977;28;20039;-69
2022/06/01 07:02:39;;;;;;;4.85;3.25;;;18.30;99.90;;;;;;4150574;28;20045;-70
2022/06/01 07:04:39;;;;;;;5.72;3.55;;;18.30;99.90;;;;;;4148158;28;20500;-69
2022/06/01 07:06:40;;;;;;;8.85;4.35;;;18.40;99.90;;;;;;4150066;28;20084;-69
2022/06/01 07:08:44;;;;;;;4.85;3.72;;;18.20;99.90;;;;;;4164911;28;20095;-70
2022/06/01 07:10:44;;;;;;;7.38;4.25;;;18.20;99.90;;;;;;4164510;28;20120;-69
2022/06/01 07:12:45;;;;;;;5.60;3.47;;;18.10;99.90;;;;;;4165743;28;20487;-69
2022/06/01 07:14:46;;;;;;;4.05;3.35;;;18.20;99.90;;;;;;4169666;28;20057;-69
2022/06/01 07:16:46;;;;;;;4.80;3.65;;;18.10;99.90;;;;;;4166853;28;20041;-70
2022/06/01 07:18:49;;;;;;;4.95;3.63;;;18.20;99.90;;;;;;4170536;28;20139;-70
2022/06/01 07:20:50;;;;;;;4.00;3.45;;;18.30;99.90;;;;;;4168643;28;20073;-70
2022/06/01 07:22:50;;;;;;;7.03;3.50;;;18.30;99.90;;;;;;4169999;28;20045;-70
2022/06/01 07:24:51;;;;;;;8.73;3.80;;;18.40;99.90;;;;;;4167437;28;20083;-70
2022/06/01 07:26:51;;;;;;;8.45;4.00;;;18.50;99.90;;;;;;4167737;28;20472;-70
2022/06/01 07:28:52;;;;;;;6.32;3.85;;;18.50;99.90;;;;;;4170791;28;20477;-69
2022/06/01 07:30:59;;;;;;;6.80;4.22;;;18.50;99.90;;;;;;4169149;28;20511;-70
2022/06/01 07:33:00;;;;;;;4.97;4.05;;;18.60;99.90;;;;;;4167159;28;20065;-69
2022/06/01 07:35:03;;;;;;;5.47;4.07;;;18.50;99.90;;;;;;4171783;28;20403;-68
2022/06/01 07:43:05;;;;;;;6.90;4.32;;;18.50;99.90;;;;;;4167260;28;20451;-69
2022/06/01 07:44:19;;;;;;;7.88;4.20;;;18.50;99.90;;;;;;4170802;28;20475;-69
2022/06/01 07:46:20;;;;;;;7.22;4.25;;;18.50;99.90;;;;;;4167604;28;20049;-70
2022/06/01 07:48:21;;;;;;;5.18;3.33;;;18.50;99.90;;;;;;4168376;28;20037;-70
2022/06/01 07:50:22;;;;;;;7.72;4.30;;;18.60;99.90;;;;;;4167703;28;21859;-69
2022/06/01 07:52:23;;;;;;;5.80;4.32;;;18.80;99.90;;;;;;4170525;28;20159;-69
2022/06/01 07:54:23;;;;;;;6.53;4.20;;;18.80;99.90;;;;;;4152862;28;20046;-69
2022/06/01 07:56:25;;;;;;;7.32;4.65;;;18.90;99.90;;;;;;4151349;28;20111;-69
2022/06/01 07:58:26;;;;;;;7.72;4.38;;;18.90;99.90;;;;;;4168873;28;20477;-69
2022/06/01 08:00:27;;;;;;;6.93;4.10;;;18.60;99.90;;;;;;4169700;28;20075;-69
2022/06/01 08:02:28;;;;;;;7.60;3.97;;;18.60;99.90;;;;;;4169175;28;20090;-69
2022/06/01 08:04:28;;;;;;;5.75;3.85;;;18.60;99.90;;;;;;4169452;28;20452;-69
2022/06/01 08:06:30;;;;;;;6.93;3.35;;;18.60;99.90;;;;;;4171853;28;20041;-69
2022/06/01 08:08:31;;;;;;;4.80;2.95;;;18.50;99.90;;;;;;4167916;28;20037;-69
2022/06/01 08:10:32;;;;;;;4.88;3.38;;;18.50;99.90;;;;;;4170898;28;20103;-69
2022/06/01 08:14:52;;;;;;;6.82;3.60;;;18.40;99.90;;;;;;4168720;28;20045;-69
2022/06/01 08:16:53;;;;;;;5.70;3.40;;;18.40;99.90;;;;;;4165137;28;20130;-69
2022/06/01 08:18:54;;;;;;;5.85;3.42;;;18.40;99.90;;;;;;4168621;28;20123;-69
2022/06/01 08:20:55;;;;;;;5.10;3.55;;;18.40;99.90;;;;;;4166921;28;20041;-69
2022/06/01 08:22:56;;;;;;;6.45;3.30;;;18.30;99.90;;;;;;4165830;28;20064;-69
2022/06/01 08:24:56;;;;;;;6.97;3.85;;;18.40;99.90;;;;;;4165898;28;20045;-69
2022/06/01 08:26:57;;;;;;;5.70;3.40;;;18.40;99.90;;;;;;4166430;28;20053;-69
2022/06/01 08:28:58;;;;;;;5.32;2.63;;;18.30;99.90;;;;;;4166904;28;20034;-69
2022/06/01 08:30:59;;;;;;;9.10;3.15;;;18.30;99.90;;;;;;4149627;28;20030;-69
2022/06/01 08:33:00;;;;;;;4.03;2.83;;;18.10;99.90;;;;;;4165527;28;20049;-69
2022/06/01 08:35:03;;;;;;;3.60;2.83;;;18.00;99.90;;;;;;4168750;28;20049;-70
2022/06/01 08:37:04;;;;;;;2.92;2.15;;;18.00;99.90;;;;;;4170727;28;20030;-70
2022/06/01 08:39:05;;;;;;;4.47;2.85;;;18.10;99.90;;;;;;4167315;28;20060;-70
2022/06/01 08:41:09;;;;;;;2.28;1.95;;;18.00;99.90;;;;;;4166593;28;20026;-69
2022/06/01 08:43:13;;;;;;;4.60;1.98;;;17.90;99.90;;;;;;4168850;28;20077;-69
2022/06/01 08:45:14;;;;;;;2.35;1.77;;;18.00;99.90;;;;;;4169999;28;20137;-69
2022/06/01 08:47:37;;;;;;;4.38;2.33;;;18.10;99.90;;;;;;4172820;28;20075;-69
2022/06/01 08:49:39;;;;;;;3.17;2.45;;;18.10;99.90;;;;;;4150979;28;20034;-70
2022/06/01 08:51:40;;;;;;;3.55;2.10;;;18.10;99.90;;;;;;4165536;28;20049;-69
2022/06/01 08:53:41;;;;;;;2.22;1.75;;;18.20;99.90;;;;;;4169246;28;20040;-70
2022/06/01 08:55:55;;;;;;;5.13;2.60;;;18.30;99.90;;;;;;4167077;28;20453;-71
2022/06/01 08:58:06;;;;;;;6.35;2.70;;;18.30;99.90;;;;;;4168429;28;20090;-71
2022/06/01 09:00:14;;;;;;;5.85;2.45;;;18.30;99.90;;;;;;4167698;28;20034;-72
2022/06/01 09:02:39;;;;;;;3.72;2.20;;;18.40;99.90;;;;;;4168511;28;20048;-72
2022/06/01 09:04:56;;;;;;;3.65;2.30;;;18.40;99.90;;;;;;4149818;28;20950;-72
2022/06/01 09:07:20;;;;;;;4.00;2.40;;;18.30;99.90;;;;;;4167774;28;20068;-72
2022/06/01 09:09:34;;;;;;;;;;;18.30;99.40;;;;;;4166638;28;20054;-72
2022/06/01 09:11:39;;;;;;;3.92;2.35;;;18.20;99.90;;;;;;4166446;28;19920;-71
2022/06/01 09:13:58;;;;;;;4.07;2.00;;;18.10;99.90;;;;;;4168637;28;20451;-72
2022/06/01 09:16:07;;;;;;;4.25;2.45;;;18.00;99.80;;;;;;4147667;28;20525;-72
2022/06/01 09:18:09;;;;;;;4.45;2.10;;;18.00;99.90;;;;;;4166784;28;20037;-72
2022/06/01 09:22:39;;;;;;;3.20;1.83;;;17.90;99.50;;;;;;4167370;28;20624;-72
2022/06/01 09:24:40;;;;;;;3.90;2.50;;;17.90;99.40;;;;;;4168140;28;20265;-72
2022/06/01 09:26:58;;;;;;;4.00;2.22;;;17.90;99.90;;;;;;4152205;28;20056;-71
2022/06/01 09:29:00;;;;;;;3.25;2.00;;;17.80;99.90;;;;;;4163573;28;20040;-72
2022/06/01 09:31:08;;;;;;;3.33;2.07;;;17.90;99.90;;;;;;4165223;28;20045;-71
2022/06/01 09:33:21;;;;;;;4.38;2.33;;;17.90;99.90;;;;;;4168162;28;20746;-72
2022/06/01 09:35:26;;;;;;;;;;;18.00;99.90;;;;;;4164025;28;20304;-72
2022/06/01 09:37:32;;;;;;;4.25;2.35;;;18.00;99.90;;;;;;4171602;28;20279;-71
2022/06/01 09:39:35;;;;;;;4.07;2.13;;;18.00;99.90;;;;;;4166968;28;20037;-72
2022/06/01 09:41:38;;;;;;;3.83;2.13;;;18.10;99.90;;;;;;4163354;28;20069;-71
2022/06/01 09:43:41;;;;;;;3.97;2.30;;;18.30;99.90;;;;;;4169256;28;20041;-71
2022/06/01 09:45:48;;;;;;;3.33;2.20;;;18.40;99.90;;;;;;4164657;28;20044;-71
2022/06/01 09:47:50;;;;;;;5.85;2.00;;;18.60;99.90;;;;;;4168357;28;20041;-71
2022/06/01 09:49:54;;;;;;;6.43;2.10;;;18.70;99.10;;;;;;4169374;28;20156;-71
2022/06/01 09:51:56;;;;;;;3.03;1.38;;;18.70;97.10;;;;;;4164842;28;20283;-71
2022/06/01 09:54:26;;;;;;;3.30;1.77;;;18.70;96.90;;;;;;4166041;28;20037;-70
2022/06/01 09:56:32;;;;;;;4.13;1.60;;;19.00;98.60;;;;;;4162341;28;20091;-72
2022/06/01 10:08:11;;;;;;;2.88;1.77;;;19.40;96.70;;;;;;4169585;28;20542;-71
2022/06/01 10:10:25;;;;;;;5.28;1.60;;;19.50;96.90;;;;;;4163617;28;20384;-72
2022/06/01 10:12:42;;;;;;;5.20;1.85;;;19.60;95.70;;;;;;4167255;28;20710;-72
2022/06/01 10:14:54;;;;;;;2.97;1.92;;;19.60;96.20;;;;;;4166426;28;20037;-71
2022/06/01 10:17:01;;;;;;;3.75;1.65;;;19.60;94.90;;;;;;4165579;28;20497;-71
2022/06/01 10:19:05;;;;;;;4.00;1.80;;;19.60;95.20;;;;;;4167201;28;20025;-71
2022/06/01 10:21:12;;;;;;;2.83;1.48;;;19.60;94.10;;;;;;4164365;28;20052;-71
2022/06/01 10:23:28;;;;;;;2.67;1.63;;;19.60;95.40;;;;;;4167845;28;20045;-71
2022/06/01 10:25:44;;;;;;;2.50;1.25;;;19.60;93.50;;;;;;4162232;28;20377;-72
2022/06/01 10:27:54;;;;;;;2.97;1.60;;;19.70;94.80;;;;;;4166262;28;20033;-71
2022/06/01 10:30:23;;;;;;;3.58;1.40;;;19.80;93.90;;;;;;4165359;28;20041;-72
2022/06/01 10:32:47;;;;;;;5.80;1.55;;;19.80;95.60;;;;;;4161932;28;20549;-72
2022/06/01 10:35:11;;;;;;;1.73;1.17;;;19.80;96.10;;;;;;4166191;28;20416;-71
2022/06/01 10:37:30;;;;;;;3.88;1.40;;;19.90;94.10;;;;;;4164309;28;20041;-72
2022/06/01 10:40:01;;;;;;;4.05;1.45;;;19.90;94.50;;;;;;4168803;28;20077;-70
2022/06/01 10:42:15;;;;;;;2.15;1.17;;;19.80;94.00;;;;;;4168933;28;20095;-70
2022/06/01 10:44:27;;;;;;;2.80;1.58;;;19.80;95.00;;;;;;4166526;28;20029;-71
2022/06/01 10:46:37;;;;;;;3.65;1.60;;;20.00;95.20;;;;;;4164401;28;20468;-71
2022/06/01 10:48:47;;;;;;;3.15;1.65;;;19.90;94.10;;;;;;4168359;28;20044;-71
2022/06/01 10:50:55;;;;;;;2.60;1.70;;;19.90;94.20;;;;;;4162938;28;20104;-71
2022/06/01 10:53:06;;;;;;;2.45;1.60;;;19.90;94.10;;;;;;4166508;28;20392;-70
2022/06/01 10:55:20;;;;;;;5.75;1.65;;;19.80;94.60;;;;;;4148367;28;20112;-71
2022/06/01 10:57:21;;;;;;;1.85;1.30;;;19.80;94.10;;;;;;4148480;28;20456;-71
2022/06/01 10:59:24;;;;;;;3.00;1.63;;;20.00;94.40;;;;;;4166258;28;20040;-71
2022/06/01 11:01:32;;;;;;;;;;;20.00;93.10;;;;;;4167879;28;20061;-71
2022/06/01 11:03:51;;;;;;;3.22;1.58;;;20.00;92.30;;;;;;4169672;28;19944;-71
2022/06/01 11:06:13;;;;;;;5.43;2.25;;;20.00;94.40;;;;;;4168853;28;20404;-71
2022/06/01 11:08:33;;;;;;;6.28;2.10;;;20.00;93.20;;;;;;4168898;28;20045;-70
2022/06/01 11:10:40;;;;;;;3.40;1.45;;;20.00;94.10;;;;;;4165687;28;20102;-71
2022/06/01 11:13:07;;;;;;;4.30;1.23;;;19.90;91.70;;;;;;4170274;28;20094;-70
2022/06/01 11:15:17;;;;;;;4.72;1.30;;;19.90;91.80;;;;;;4165672;28;20069;-70
2022/06/01 11:17:25;;;;;;;2.17;1.30;;;19.90;92.80;;;;;;4167155;28;20579;-70
2022/06/01 11:19:53;;;;;;;3.25;1.40;;;19.90;93.20;;;;;;4167375;28;20033;-71